sensor_id;sensor_type;location;lat;lon;timestamp;pressure;altitude;pressure_sealevel;temperature;humidity
65384;BME280;51986;52.788;41.368;2022-07-10T00:00:50;98827.25;;;20.48;50.75
65384;BME280;51986;52.788;41.368;2022-07-10T00:03:17;98820.25;;;20.31;52.09
65384;BME280;51986;52.788;41.368;2022-07-10T00:05:44;98816.88;;;20.56;51.89
65384;BME280;51986;52.788;41.368;2022-07-10T00:08:11;98818.75;;;20.30;52.77
65384;BME280;51986;52.788;41.368;2022-07-10T00:10:38;98811.66;;;20.47;52.46
65384;BME280;51986;52.788;41.368;2022-07-10T00:13:05;98858.44;;;20.46;52.74
65384;BME280;51986;52.788;41.368;2022-07-10T00:15:32;98845.44;;;20.59;52.72
65384;BME280;51986;52.788;41.368;2022-07-10T00:17:59;98835.72;;;20.62;52.79
65384;BME280;51986;52.788;41.368;2022-07-10T00:20:26;98831.50;;;20.55;53.18
65384;BME280;51986;52.788;41.368;2022-07-10T00:22:53;98835.53;;;20.65;52.59
65384;BME280;51986;52.788;41.368;2022-07-10T00:25:27;98836.06;;;20.69;52.55
65384;BME280;51986;52.788;41.368;2022-07-10T00:27:54;98829.97;;;20.69;52.16
65384;BME280;51986;52.788;41.368;2022-07-10T00:30:21;98840.88;;;20.65;52.46
65384;BME280;51986;52.788;41.368;2022-07-10T00:32:48;98858.53;;;20.77;52.40
65384;BME280;51986;52.788;41.368;2022-07-10T00:35:15;98843.28;;;20.63;52.18
65384;BME280;51986;52.788;41.368;2022-07-10T00:37:42;98813.41;;;20.50;52.01
65384;BME280;51986;52.788;41.368;2022-07-10T00:40:09;98818.28;;;20.72;51.70
65384;BME280;51986;52.788;41.368;2022-07-10T00:42:36;98816.78;;;20.45;52.39
65384;BME280;51986;52.788;41.368;2022-07-10T00:45:03;98810.78;;;20.56;52.20
65384;BME280;51986;52.788;41.368;2022-07-10T00:47:30;98811.56;;;20.82;51.53
65384;BME280;51986;52.788;41.368;2022-07-10T00:49:57;98830.03;;;21.00;50.92
65384;BME280;51986;52.788;41.368;2022-07-10T00:52:24;98839.22;;;20.94;50.78
65384;BME280;51986;52.788;41.368;2022-07-10T00:54:51;98844.16;;;21.01;51.48
65384;BME280;51986;52.788;41.368;2022-07-10T00:57:19;98839.16;;;21.14;51.13
65384;BME280;51986;52.788;41.368;2022-07-10T00:59:48;98818.34;;;21.03;51.65
65384;BME280;51986;52.788;41.368;2022-07-10T01:02:16;98800.97;;;20.93;51.59
65384;BME280;51986;52.788;41.368;2022-07-10T01:04:57;98829.13;;;21.09;51.71
65384;BME280;51986;52.788;41.368;2022-07-10T01:07:24;98800.94;;;21.19;51.15
65384;BME280;51986;52.788;41.368;2022-07-10T01:09:51;98808.28;;;21.24;51.18
65384;BME280;51986;52.788;41.368;2022-07-10T01:12:20;98825.00;;;21.40;50.46
65384;BME280;51986;52.788;41.368;2022-07-10T01:14:48;98815.53;;;21.44;50.81
65384;BME280;51986;52.788;41.368;2022-07-10T01:17:15;98826.28;;;21.18;51.31
65384;BME280;51986;52.788;41.368;2022-07-10T01:19:43;98807.91;;;21.37;51.06
65384;BME280;51986;52.788;41.368;2022-07-10T01:22:10;98815.53;;;21.44;51.18
65384;BME280;51986;52.788;41.368;2022-07-10T01:24:37;98801.16;;;21.47;50.93
65384;BME280;51986;52.788;41.368;2022-07-10T01:27:04;98797.22;;;21.43;51.36
65384;BME280;51986;52.788;41.368;2022-07-10T01:29:31;98812.25;;;21.35;51.71
65384;BME280;51986;52.788;41.368;2022-07-10T01:31:58;98798.97;;;21.20;52.25
65384;BME280;51986;52.788;41.368;2022-07-10T01:34:25;98795.03;;;21.15;52.73
65384;BME280;51986;52.788;41.368;2022-07-10T01:36:52;98811.88;;;21.16;52.74
65384;BME280;51986;52.788;41.368;2022-07-10T01:39:19;98791.63;;;21.15;52.54
65384;BME280;51986;52.788;41.368;2022-07-10T01:41:46;98808.50;;;21.21;52.54
65384;BME280;51986;52.788;41.368;2022-07-10T01:44:13;98798.28;;;21.25;52.57
65384;BME280;51986;52.788;41.368;2022-07-10T01:46:45;98811.13;;;21.41;52.40
65384;BME280;51986;52.788;41.368;2022-07-10T01:49:13;98792.28;;;21.36;52.09
65384;BME280;51986;52.788;41.368;2022-07-10T01:51:40;98815.22;;;21.37;52.23
65384;BME280;51986;52.788;41.368;2022-07-10T01:54:07;98811.88;;;21.42;52.61
65384;BME280;51986;52.788;41.368;2022-07-10T01:56:34;98805.28;;;21.43;52.23
65384;BME280;51986;52.788;41.368;2022-07-10T01:59:01;98803.75;;;21.36;52.72
65384;BME280;51986;52.788;41.368;2022-07-10T02:01:31;98788.75;;;21.50;51.93
65384;BME280;51986;52.788;41.368;2022-07-10T02:03:58;98795.16;;;21.26;52.65
65384;BME280;51986;52.788;41.368;2022-07-10T02:06:25;98778.31;;;21.26;52.71
65384;BME280;51986;52.788;41.368;2022-07-10T02:08:52;98764.78;;;21.41;51.69
65384;BME280;51986;52.788;41.368;2022-07-10T02:11:21;98769.22;;;21.18;52.75
65384;BME280;51986;52.788;41.368;2022-07-10T02:13:48;98780.25;;;21.25;51.92
65384;BME280;51986;52.788;41.368;2022-07-10T02:16:15;98762.72;;;21.30;52.22
65384;BME280;51986;52.788;41.368;2022-07-10T02:18:42;98784.66;;;21.28;51.64
65384;BME280;51986;52.788;41.368;2022-07-10T02:21:10;98776.81;;;21.51;51.55
65384;BME280;51986;52.788;41.368;2022-07-10T02:23:37;98754.81;;;21.47;51.62
65384;BME280;51986;52.788;41.368;2022-07-10T02:26:04;98777.44;;;21.77;50.79
65384;BME280;51986;52.788;41.368;2022-07-10T02:28:31;98778.41;;;21.74;51.61
65384;BME280;51986;52.788;41.368;2022-07-10T02:30:58;98749.44;;;21.41;51.93
65384;BME280;51986;52.788;41.368;2022-07-10T02:33:25;98734.81;;;21.48;51.01
65384;BME280;51986;52.788;41.368;2022-07-10T02:35:52;98751.75;;;21.65;50.68
65384;BME280;51986;52.788;41.368;2022-07-10T02:38:19;98724.53;;;21.89;49.99
65384;BME280;51986;52.788;41.368;2022-07-10T02:40:46;98727.97;;;21.95;49.95
65384;BME280;51986;52.788;41.368;2022-07-10T02:43:14;98743.13;;;22.04;49.50
65384;BME280;51986;52.788;41.368;2022-07-10T02:45:41;98723.09;;;21.99;50.20
65384;BME280;51986;52.788;41.368;2022-07-10T02:48:14;98750.94;;;22.02;50.10
65384;BME280;51986;52.788;41.368;2022-07-10T02:50:42;98737.84;;;22.21;50.01
65384;BME280;51986;52.788;41.368;2022-07-10T02:53:22;98740.31;;;22.36;49.78
65384;BME280;51986;52.788;41.368;2022-07-10T02:55:49;98727.38;;;22.45;49.63
65384;BME280;51986;52.788;41.368;2022-07-10T02:58:16;98748.91;;;22.56;48.79
65384;BME280;51986;52.788;41.368;2022-07-10T03:00:43;98738.66;;;22.66;48.27
65384;BME280;51986;52.788;41.368;2022-07-10T03:03:10;98741.88;;;22.87;47.64
65384;BME280;51986;52.788;41.368;2022-07-10T03:05:37;98751.19;;;23.03;48.30
65384;BME280;51986;52.788;41.368;2022-07-10T03:08:04;98765.34;;;23.20;47.43
65384;BME280;51986;52.788;41.368;2022-07-10T03:10:31;98753.34;;;23.21;47.00
65384;BME280;51986;52.788;41.368;2022-07-10T03:13:00;98762.84;;;23.45;46.71
65384;BME280;51986;52.788;41.368;2022-07-10T03:15:27;98761.66;;;23.57;45.45
65384;BME280;51986;52.788;41.368;2022-07-10T03:17:54;98757.69;;;23.69;46.14
65384;BME280;51986;52.788;41.368;2022-07-10T03:20:21;98758.16;;;23.73;46.20
65384;BME280;51986;52.788;41.368;2022-07-10T03:22:48;98739.94;;;24.02;45.81
65384;BME280;51986;52.788;41.368;2022-07-10T03:25:15;98766.75;;;24.36;44.95
65384;BME280;51986;52.788;41.368;2022-07-10T03:27:42;98769.00;;;24.67;44.31
65384;BME280;51986;52.788;41.368;2022-07-10T03:30:10;98756.25;;;25.03;43.87
65384;BME280;51986;52.788;41.368;2022-07-10T03:32:37;98758.03;;;25.25;43.26
65384;BME280;51986;52.788;41.368;2022-07-10T03:35:04;98765.09;;;26.21;40.72
65384;BME280;51986;52.788;41.368;2022-07-10T03:37:31;98741.63;;;27.12;39.25
65384;BME280;51986;52.788;41.368;2022-07-10T03:39:58;98746.22;;;27.83;37.55
65384;BME280;51986;52.788;41.368;2022-07-10T03:42:25;98735.44;;;29.01;35.60
65384;BME280;51986;52.788;41.368;2022-07-10T03:44:52;98733.41;;;30.39;32.45
65384;BME280;51986;52.788;41.368;2022-07-10T03:47:19;98744.31;;;30.77;32.07
65384;BME280;51986;52.788;41.368;2022-07-10T03:49:46;98726.50;;;31.85;30.05
65384;BME280;51986;52.788;41.368;2022-07-10T03:52:13;98752.34;;;32.50;29.27
65384;BME280;51986;52.788;41.368;2022-07-10T03:54:40;98748.81;;;33.24;27.79
65384;BME280;51986;52.788;41.368;2022-07-10T03:57:07;98726.09;;;34.01;26.95
65384;BME280;51986;52.788;41.368;2022-07-10T03:59:34;98729.13;;;34.41;25.50
65384;BME280;51986;52.788;41.368;2022-07-10T04:02:01;98715.59;;;35.19;24.36
65384;BME280;51986;52.788;41.368;2022-07-10T04:04:28;98741.25;;;35.91;23.41
65384;BME280;51986;52.788;41.368;2022-07-10T04:06:55;98726.00;;;35.30;23.25
65384;BME280;51986;52.788;41.368;2022-07-10T04:09:22;98749.50;;;35.91;22.67
65384;BME280;51986;52.788;41.368;2022-07-10T04:11:49;98729.41;;;36.39;22.31
65384;BME280;51986;52.788;41.368;2022-07-10T04:14:17;98724.63;;;35.99;22.83
65384;BME280;51986;52.788;41.368;2022-07-10T04:16:46;98746.66;;;36.20;22.63
65384;BME280;51986;52.788;41.368;2022-07-10T04:19:13;98729.03;;;36.23;21.82
65384;BME280;51986;52.788;41.368;2022-07-10T04:21:40;98729.75;;;36.24;22.34
65384;BME280;51986;52.788;41.368;2022-07-10T04:24:07;98738.19;;;36.07;22.44
65384;BME280;51986;52.788;41.368;2022-07-10T04:26:34;98734.44;;;36.12;22.44
65384;BME280;51986;52.788;41.368;2022-07-10T04:29:01;98738.25;;;35.87;22.96
65384;BME280;51986;52.788;41.368;2022-07-10T04:31:28;98731.16;;;35.94;22.04
65384;BME280;51986;52.788;41.368;2022-07-10T04:33:55;98743.03;;;35.29;22.42
65384;BME280;51986;52.788;41.368;2022-07-10T04:36:23;98731.03;;;34.95;22.58
65384;BME280;51986;52.788;41.368;2022-07-10T04:38:49;98736.81;;;34.99;22.79
65384;BME280;51986;52.788;41.368;2022-07-10T04:41:16;98747.66;;;35.55;21.43
65384;BME280;51986;52.788;41.368;2022-07-10T04:43:44;98749.06;;;35.85;21.02
65384;BME280;51986;52.788;41.368;2022-07-10T04:46:11;98734.66;;;35.17;21.67
65384;BME280;51986;52.788;41.368;2022-07-10T04:48:38;98748.34;;;35.75;21.20
65384;BME280;51986;52.788;41.368;2022-07-10T04:51:05;98736.69;;;35.65;21.55
65384;BME280;51986;52.788;41.368;2022-07-10T04:53:32;98752.41;;;34.96;22.36
65384;BME280;51986;52.788;41.368;2022-07-10T04:55:59;98733.34;;;34.98;22.14
65384;BME280;51986;52.788;41.368;2022-07-10T04:58:26;98735.81;;;34.58;22.15
65384;BME280;51986;52.788;41.368;2022-07-10T05:00:53;98737.25;;;35.15;22.03
65384;BME280;51986;52.788;41.368;2022-07-10T05:03:28;98722.94;;;34.87;21.66
65384;BME280;51986;52.788;41.368;2022-07-10T05:05:55;98702.19;;;35.04;20.73
65384;BME280;51986;52.788;41.368;2022-07-10T05:08:34;98785.88;;;35.24;20.90
65384;BME280;51986;52.788;41.368;2022-07-10T05:11:02;98730.78;;;35.30;20.10
65384;BME280;51986;52.788;41.368;2022-07-10T05:13:29;98728.47;;;35.26;20.49
65384;BME280;51986;52.788;41.368;2022-07-10T05:16:07;98705.81;;;35.26;20.37
65384;BME280;51986;52.788;41.368;2022-07-10T05:18:34;98730.19;;;34.92;20.50
65384;BME280;51986;52.788;41.368;2022-07-10T05:21:02;98726.00;;;35.11;19.93
65384;BME280;51986;52.788;41.368;2022-07-10T05:23:29;98709.84;;;35.05;19.68
65384;BME280;51986;52.788;41.368;2022-07-10T05:26:07;98730.19;;;34.92;20.40
65384;BME280;51986;52.788;41.368;2022-07-10T05:28:35;98731.66;;;34.20;19.85
65384;BME280;51986;52.788;41.368;2022-07-10T05:31:08;98710.47;;;33.93;20.59
65384;BME280;51986;52.788;41.368;2022-07-10T05:33:35;98721.38;;;34.11;20.93
65384;BME280;51986;52.788;41.368;2022-07-10T05:36:03;98719.94;;;33.65;21.06
65384;BME280;51986;52.788;41.368;2022-07-10T05:38:31;98710.31;;;33.91;21.24
65384;BME280;51986;52.788;41.368;2022-07-10T05:40:58;98708.47;;;33.50;21.68
65384;BME280;51986;52.788;41.368;2022-07-10T05:43:25;98720.97;;;33.70;22.00
65384;BME280;51986;52.788;41.368;2022-07-10T05:45:52;98689.66;;;33.54;21.47
65384;BME280;51986;52.788;41.368;2022-07-10T05:48:24;98694.34;;;33.70;22.24
65384;BME280;51986;52.788;41.368;2022-07-10T05:53:57;98711.53;;;33.81;21.68
65384;BME280;51986;52.788;41.368;2022-07-10T05:56:24;98699.50;;;33.66;21.24
65384;BME280;51986;52.788;41.368;2022-07-10T05:58:51;98709.44;;;33.10;22.13
65384;BME280;51986;52.788;41.368;2022-07-10T06:01:18;98703.63;;;32.38;23.20
65384;BME280;51986;52.788;41.368;2022-07-10T06:03:46;98743.38;;;32.57;24.23
65384;BME280;51986;52.788;41.368;2022-07-10T06:06:16;98722.06;;;32.80;23.76
65384;BME280;51986;52.788;41.368;2022-07-10T06:08:44;98698.44;;;32.75;23.01
65384;BME280;51986;52.788;41.368;2022-07-10T06:11:11;98714.28;;;32.94;22.89
65384;BME280;51986;52.788;41.368;2022-07-10T06:13:39;98699.44;;;32.87;23.08
65384;BME280;51986;52.788;41.368;2022-07-10T06:16:06;98719.94;;;32.96;22.33
65384;BME280;51986;52.788;41.368;2022-07-10T06:18:33;98688.31;;;33.10;22.78
65384;BME280;51986;52.788;41.368;2022-07-10T06:21:01;98705.97;;;33.09;22.72
65384;BME280;51986;52.788;41.368;2022-07-10T06:23:29;98704.31;;;32.89;21.90
65384;BME280;51986;52.788;41.368;2022-07-10T06:25:56;98724.78;;;32.80;22.55
65384;BME280;51986;52.788;41.368;2022-07-10T06:28:23;98731.78;;;32.74;22.75
65384;BME280;51986;52.788;41.368;2022-07-10T06:30:50;98727.38;;;32.78;22.16
65384;BME280;51986;52.788;41.368;2022-07-10T06:33:25;98732.72;;;32.68;22.50
65384;BME280;51986;52.788;41.368;2022-07-10T06:35:52;98692.16;;;32.65;22.22
65384;BME280;51986;52.788;41.368;2022-07-10T06:38:19;98702.19;;;32.37;22.23
65384;BME280;51986;52.788;41.368;2022-07-10T06:40:47;98690.34;;;32.42;22.27
65384;BME280;51986;52.788;41.368;2022-07-10T06:43:15;98700.28;;;32.90;23.19
65384;BME280;51986;52.788;41.368;2022-07-10T06:45:42;98703.78;;;33.08;22.15
65384;BME280;51986;52.788;41.368;2022-07-10T06:48:12;98693.28;;;33.21;22.83
65384;BME280;51986;52.788;41.368;2022-07-10T06:50:43;98700.78;;;33.65;21.48
65384;BME280;51986;52.788;41.368;2022-07-10T06:53:11;98698.41;;;33.35;22.76
65384;BME280;51986;52.788;41.368;2022-07-10T06:55:38;98700.59;;;33.54;21.80
65384;BME280;51986;52.788;41.368;2022-07-10T06:58:05;98705.06;;;33.41;22.14
65384;BME280;51986;52.788;41.368;2022-07-10T07:00:33;98697.34;;;33.65;21.43
65384;BME280;51986;52.788;41.368;2022-07-10T07:03:09;98695.06;;;33.71;21.61
65384;BME280;51986;52.788;41.368;2022-07-10T07:05:41;98723.25;;;33.64;21.62
65384;BME280;51986;52.788;41.368;2022-07-10T07:08:10;98711.13;;;33.84;20.47
65384;BME280;51986;52.788;41.368;2022-07-10T07:10:37;98712.13;;;33.62;20.25
65384;BME280;51986;52.788;41.368;2022-07-10T07:13:25;98697.34;;;33.65;20.96
65384;BME280;51986;52.788;41.368;2022-07-10T07:15:52;98680.50;;;33.24;21.08
65384;BME280;51986;52.788;41.368;2022-07-10T07:18:20;98694.41;;;33.53;20.80
65384;BME280;51986;52.788;41.368;2022-07-10T07:20:47;98704.75;;;33.55;20.80
65384;BME280;51986;52.788;41.368;2022-07-10T07:23:41;98713.84;;;33.57;21.17
65384;BME280;51986;52.788;41.368;2022-07-10T07:26:09;98678.41;;;33.50;20.64
65384;BME280;51986;52.788;41.368;2022-07-10T07:28:36;98688.78;;;33.78;19.74
65384;BME280;51986;52.788;41.368;2022-07-10T07:31:07;98709.81;;;33.85;19.58
65384;BME280;51986;52.788;41.368;2022-07-10T07:33:40;98699.66;;;33.68;18.70
65384;BME280;51986;52.788;41.368;2022-07-10T07:36:07;98727.16;;;33.70;18.69
65384;BME280;51986;52.788;41.368;2022-07-10T07:38:34;98718.28;;;33.80;18.94
65384;BME280;51986;52.788;41.368;2022-07-10T07:41:02;98711.28;;;33.86;18.30
65384;BME280;51986;52.788;41.368;2022-07-10T07:43:31;98723.41;;;33.14;19.62
65384;BME280;51986;52.788;41.368;2022-07-10T07:45:59;98715.97;;;32.89;20.56
65384;BME280;51986;52.788;41.368;2022-07-10T07:48:26;98719.66;;;32.84;20.36
65384;BME280;51986;52.788;41.368;2022-07-10T07:50:53;98691.63;;;32.84;20.08
65384;BME280;51986;52.788;41.368;2022-07-10T07:53:32;98721.22;;;32.95;20.10
65384;BME280;51986;52.788;41.368;2022-07-10T07:55:59;98738.44;;;32.80;19.64
65384;BME280;51986;52.788;41.368;2022-07-10T07:58:26;98725.25;;;32.69;19.10
65384;BME280;51986;52.788;41.368;2022-07-10T08:00:53;98716.19;;;32.66;18.73
65384;BME280;51986;52.788;41.368;2022-07-10T08:03:21;98712.50;;;32.89;18.46
65384;BME280;51986;52.788;41.368;2022-07-10T08:06:08;98715.47;;;33.43;18.78
65384;BME280;51986;52.788;41.368;2022-07-10T08:08:58;98717.28;;;33.23;19.92
65384;BME280;51986;52.788;41.368;2022-07-10T08:11:25;98707.66;;;33.05;18.71
65384;BME280;51986;52.788;41.368;2022-07-10T08:13:52;98703.31;;;33.54;16.99
65384;BME280;51986;52.788;41.368;2022-07-10T08:16:19;98711.66;;;33.73;17.01
65384;BME280;51986;52.788;41.368;2022-07-10T08:18:46;98691.22;;;34.01;16.86
65384;BME280;51986;52.788;41.368;2022-07-10T08:21:13;98729.94;;;34.25;17.75
65384;BME280;51986;52.788;41.368;2022-07-10T08:23:40;98716.97;;;34.25;17.48
65384;BME280;51986;52.788;41.368;2022-07-10T08:26:07;98703.84;;;34.23;17.03
65384;BME280;51986;52.788;41.368;2022-07-10T08:28:34;98712.88;;;34.43;17.34
65384;BME280;51986;52.788;41.368;2022-07-10T08:31:01;98692.94;;;33.96;16.99
65384;BME280;51986;52.788;41.368;2022-07-10T08:33:28;98689.03;;;34.00;17.17
65384;BME280;51986;52.788;41.368;2022-07-10T08:35:55;98703.47;;;34.37;17.54
65384;BME280;51986;52.788;41.368;2022-07-10T08:38:42;98726.25;;;34.39;17.62
65384;BME280;51986;52.788;41.368;2022-07-10T08:41:11;98698.97;;;34.32;18.07
65384;BME280;51986;52.788;41.368;2022-07-10T08:43:39;98689.00;;;34.54;17.64
65384;BME280;51986;52.788;41.368;2022-07-10T08:46:07;98684.50;;;34.49;17.50
65384;BME280;51986;52.788;41.368;2022-07-10T08:48:41;98689.34;;;34.40;17.45
65384;BME280;51986;52.788;41.368;2022-07-10T08:51:16;98699.53;;;34.86;17.04
65384;BME280;51986;52.788;41.368;2022-07-10T08:53:47;98698.63;;;34.45;16.78
65384;BME280;51986;52.788;41.368;2022-07-10T08:56:15;98705.25;;;33.88;16.89
65384;BME280;51986;52.788;41.368;2022-07-10T08:58:42;98696.97;;;34.88;16.41
65384;BME280;51986;52.788;41.368;2022-07-10T09:01:10;98691.53;;;35.27;17.50
65384;BME280;51986;52.788;41.368;2022-07-10T09:03:37;98713.16;;;35.23;17.40
65384;BME280;51986;52.788;41.368;2022-07-10T09:08:59;98679.84;;;35.17;16.48
65384;BME280;51986;52.788;41.368;2022-07-10T09:11:26;98688.78;;;35.17;17.46
65384;BME280;51986;52.788;41.368;2022-07-10T09:13:56;98695.28;;;35.12;17.69
65384;BME280;51986;52.788;41.368;2022-07-10T09:16:23;98665.25;;;35.05;18.28
65384;BME280;51986;52.788;41.368;2022-07-10T09:18:51;98683.28;;;35.27;17.93
65384;BME280;51986;52.788;41.368;2022-07-10T09:21:41;98685.69;;;34.65;18.06
65384;BME280;51986;52.788;41.368;2022-07-10T09:24:09;98703.47;;;34.83;17.42
65384;BME280;51986;52.788;41.368;2022-07-10T09:26:36;98701.69;;;34.22;17.64
65384;BME280;51986;52.788;41.368;2022-07-10T09:29:10;98700.25;;;34.21;18.32
65384;BME280;51986;52.788;41.368;2022-07-10T09:34:17;98677.75;;;34.59;17.76
65384;BME280;51986;52.788;41.368;2022-07-10T09:36:44;98697.81;;;34.25;17.98
65384;BME280;51986;52.788;41.368;2022-07-10T09:39:11;98674.88;;;34.67;17.44
65384;BME280;51986;52.788;41.368;2022-07-10T09:41:38;98673.44;;;34.85;16.71
65384;BME280;51986;52.788;41.368;2022-07-10T09:44:06;98666.81;;;34.79;16.54
65384;BME280;51986;52.788;41.368;2022-07-10T09:46:37;98669.56;;;34.69;16.07
65384;BME280;51986;52.788;41.368;2022-07-10T09:49:12;98690.09;;;34.97;16.52
65384;BME280;51986;52.788;41.368;2022-07-10T09:51:44;98699.34;;;35.40;16.45
65384;BME280;51986;52.788;41.368;2022-07-10T09:54:18;98691.22;;;34.94;16.62
65384;BME280;51986;52.788;41.368;2022-07-10T09:56:48;98680.13;;;35.02;16.93
65384;BME280;51986;52.788;41.368;2022-07-10T09:59:17;98674.50;;;35.00;16.75
65384;BME280;51986;52.788;41.368;2022-07-10T10:01:48;98685.47;;;35.00;16.32
65384;BME280;51986;52.788;41.368;2022-07-10T10:04:17;98687.63;;;35.50;16.89
65384;BME280;51986;52.788;41.368;2022-07-10T10:06:56;98670.59;;;35.32;16.71
65384;BME280;51986;52.788;41.368;2022-07-10T10:12:01;98677.63;;;35.64;16.23
65384;BME280;51986;52.788;41.368;2022-07-10T10:14:31;98680.53;;;35.37;16.07
65384;BME280;51986;52.788;41.368;2022-07-10T10:17:00;98673.47;;;35.24;15.71
65384;BME280;51986;52.788;41.368;2022-07-10T10:19:32;98675.94;;;35.39;15.61
65384;BME280;51986;52.788;41.368;2022-07-10T10:22:01;98670.31;;;35.28;15.84
65384;BME280;51986;52.788;41.368;2022-07-10T10:24:31;98664.09;;;35.27;15.86
65384;BME280;51986;52.788;41.368;2022-07-10T10:26:59;98678.13;;;35.41;16.13
65384;BME280;51986;52.788;41.368;2022-07-10T10:29:28;98698.31;;;35.16;16.15
65384;BME280;51986;52.788;41.368;2022-07-10T10:31:55;98702.91;;;35.23;16.04
65384;BME280;51986;52.788;41.368;2022-07-10T10:34:40;98669.28;;;34.84;16.07
65384;BME280;51986;52.788;41.368;2022-07-10T10:37:44;98665.75;;;34.45;16.37
65384;BME280;51986;52.788;41.368;2022-07-10T10:40:33;98652.03;;;34.35;16.61
65384;BME280;51986;52.788;41.368;2022-07-10T10:43:20;98657.13;;;34.49;16.35
65384;BME280;51986;52.788;41.368;2022-07-10T10:45:47;98676.44;;;34.14;16.73
65384;BME280;51986;52.788;41.368;2022-07-10T10:48:16;98677.66;;;34.30;15.81
65384;BME280;51986;52.788;41.368;2022-07-10T10:51:03;98640.34;;;34.25;16.01
65384;BME280;51986;52.788;41.368;2022-07-10T10:53:30;98678.59;;;34.06;16.92
65384;BME280;51986;52.788;41.368;2022-07-10T10:58:40;98650.06;;;34.45;16.42
65384;BME280;51986;52.788;41.368;2022-07-10T11:06:51;98671.50;;;34.39;16.73
65384;BME280;51986;52.788;41.368;2022-07-10T11:09:22;98713.63;;;34.54;16.65
65384;BME280;51986;52.788;41.368;2022-07-10T11:12:04;98687.13;;;34.66;16.81
65384;BME280;51986;52.788;41.368;2022-07-10T11:14:50;98660.75;;;34.61;16.41
65384;BME280;51986;52.788;41.368;2022-07-10T11:17:17;98657.28;;;34.60;16.52
65384;BME280;51986;52.788;41.368;2022-07-10T11:19:44;98672.13;;;34.67;15.91
65384;BME280;51986;52.788;41.368;2022-07-10T11:30:18;98654.69;;;34.82;15.04
65384;BME280;51986;52.788;41.368;2022-07-10T11:32:45;98657.16;;;34.58;14.85
65384;BME280;51986;52.788;41.368;2022-07-10T11:35:12;98660.69;;;34.41;16.16
65384;BME280;51986;52.788;41.368;2022-07-10T11:37:50;98659.38;;;34.42;15.39
65384;BME280;51986;52.788;41.368;2022-07-10T11:40:18;98657.19;;;34.31;14.98
65384;BME280;51986;52.788;41.368;2022-07-10T11:43:08;98682.84;;;34.36;14.75
65384;BME280;51986;52.788;41.368;2022-07-10T11:45:35;98698.22;;;34.21;14.73
65384;BME280;51986;52.788;41.368;2022-07-10T11:48:03;98699.78;;;34.15;14.64
65384;BME280;51986;52.788;41.368;2022-07-10T11:50:38;98666.44;;;33.99;15.05
65384;BME280;51986;52.788;41.368;2022-07-10T11:53:05;98674.66;;;33.99;14.53
65384;BME280;51986;52.788;41.368;2022-07-10T11:55:33;98680.63;;;34.15;14.37
65384;BME280;51986;52.788;41.368;2022-07-10T11:58:18;98677.56;;;34.01;14.42
65384;BME280;51986;52.788;41.368;2022-07-10T12:01:02;98672.00;;;34.18;14.79
65384;BME280;51986;52.788;41.368;2022-07-10T12:03:29;98668.47;;;33.99;14.96
65384;BME280;51986;52.788;41.368;2022-07-10T12:11:34;98656.09;;;34.44;14.72
65384;BME280;51986;52.788;41.368;2022-07-10T12:14:28;98654.41;;;34.58;15.37
65384;BME280;51986;52.788;41.368;2022-07-10T12:16:57;98645.22;;;34.27;15.70
65384;BME280;51986;52.788;41.368;2022-07-10T12:19:46;98658.03;;;33.87;16.27
65384;BME280;51986;52.788;41.368;2022-07-10T12:22:21;98646.22;;;33.94;16.81
65384;BME280;51986;52.788;41.368;2022-07-10T12:24:48;98658.44;;;33.84;15.87
65384;BME280;51986;52.788;41.368;2022-07-10T12:27:42;98644.19;;;33.85;16.55
65384;BME280;51986;52.788;41.368;2022-07-10T12:30:09;98647.03;;;33.78;16.56
65384;BME280;51986;52.788;41.368;2022-07-10T12:32:36;98638.59;;;33.93;16.24
65384;BME280;51986;52.788;41.368;2022-07-10T12:35:03;98645.44;;;33.75;16.60
65384;BME280;51986;52.788;41.368;2022-07-10T12:37:30;98642.38;;;33.70;17.31
65384;BME280;51986;52.788;41.368;2022-07-10T12:39:57;98637.88;;;33.92;16.55
65384;BME280;51986;52.788;41.368;2022-07-10T12:42:26;98642.97;;;33.96;16.90
65384;BME280;51986;52.788;41.368;2022-07-10T12:44:53;98637.84;;;33.83;16.64
65384;BME280;51986;52.788;41.368;2022-07-10T12:47:21;98652.75;;;33.99;16.55
65384;BME280;51986;52.788;41.368;2022-07-10T12:49:57;98631.09;;;33.57;17.26
65384;BME280;51986;52.788;41.368;2022-07-10T12:55:35;98626.91;;;33.56;17.21
65384;BME280;51986;52.788;41.368;2022-07-10T12:58:09;98654.41;;;33.58;17.24
65384;BME280;51986;52.788;41.368;2022-07-10T13:00:47;98642.28;;;33.51;17.24
65384;BME280;51986;52.788;41.368;2022-07-10T13:03:19;98638.81;;;33.51;17.08
65384;BME280;51986;52.788;41.368;2022-07-10T13:05:46;98624.34;;;33.40;17.51
65384;BME280;51986;52.788;41.368;2022-07-10T13:08:21;98650.13;;;33.64;17.11
65384;BME280;51986;52.788;41.368;2022-07-10T13:10:58;98637.25;;;33.30;16.68
65384;BME280;51986;52.788;41.368;2022-07-10T13:13:25;98621.13;;;33.07;17.02
65384;BME280;51986;52.788;41.368;2022-07-10T13:16:05;98642.91;;;33.15;16.59
65384;BME280;51986;52.788;41.368;2022-07-10T13:18:32;98634.13;;;33.16;16.65
65384;BME280;51986;52.788;41.368;2022-07-10T13:20:59;98637.78;;;33.46;16.77
65384;BME280;51986;52.788;41.368;2022-07-10T13:23:29;98624.75;;;33.54;16.78
65384;BME280;51986;52.788;41.368;2022-07-10T13:25:56;98623.06;;;33.41;17.55
65384;BME280;51986;52.788;41.368;2022-07-10T13:28:24;98616.91;;;33.24;17.18
65384;BME280;51986;52.788;41.368;2022-07-10T13:30:51;98626.81;;;33.19;17.88
65384;BME280;51986;52.788;41.368;2022-07-10T13:33:18;98632.81;;;33.35;18.52
65384;BME280;51986;52.788;41.368;2022-07-10T13:35:45;98631.06;;;32.95;18.74
65384;BME280;51986;52.788;41.368;2022-07-10T13:38:13;98635.97;;;32.62;18.46